createdAt,value
2023-08-09T00:00:33.019Z,1.65
2023-08-09T00:03:01.645Z,1.83
2023-08-09T00:05:31.088Z,1.70
2023-08-09T00:07:59.258Z,1.83
2023-08-09T00:10:28.057Z,1.60
2023-08-09T00:12:56.073Z,1.70
2023-08-09T00:15:24.716Z,1.98
2023-08-09T00:17:52.825Z,1.90
2023-08-09T00:20:21.846Z,1.90
2023-08-09T00:22:51.845Z,2.00
2023-08-09T00:25:19.872Z,2.00
2023-08-09T00:27:48.001Z,1.48
2023-08-09T00:30:16.347Z,1.85
2023-08-09T00:32:44.881Z,1.90
2023-08-09T00:35:13.418Z,1.48
2023-08-09T00:37:41.456Z,1.88
2023-08-09T00:40:13.629Z,2.00
2023-08-09T00:42:42.773Z,1.80
2023-08-09T00:45:11.888Z,1.50
2023-08-09T00:47:39.868Z,1.90
2023-08-09T00:50:09.080Z,1.80
2023-08-09T00:52:38.363Z,1.50
2023-08-09T00:55:08.015Z,1.65
2023-08-09T00:57:37.538Z,1.40
2023-08-09T01:00:06.941Z,1.40
2023-08-09T01:02:35.155Z,1.83
2023-08-09T01:05:05.585Z,1.48
2023-08-09T01:07:42.381Z,1.83
2023-08-09T01:10:16.895Z,1.83
2023-08-09T01:12:52.133Z,1.83
2023-08-09T01:15:22.160Z,1.77
2023-08-09T01:17:51.209Z,2.00
2023-08-09T01:20:20.413Z,1.80
2023-08-09T01:22:57.592Z,1.57
2023-08-09T01:25:27.270Z,2.10
2023-08-09T01:27:55.703Z,1.75
2023-08-09T01:30:24.820Z,1.60
2023-08-09T01:32:53.373Z,1.55
2023-08-09T01:35:21.988Z,1.77
2023-08-09T01:37:53.681Z,1.73
2023-08-09T01:40:24.096Z,1.55
2023-08-09T01:42:54.335Z,2.20
2023-08-09T01:45:22.818Z,1.63
2023-08-09T01:47:51.844Z,2.00
2023-08-09T01:50:21.269Z,1.80
2023-08-09T01:52:49.421Z,1.70
2023-08-09T01:55:21.334Z,2.10
2023-08-09T01:57:50.577Z,1.73
2023-08-09T02:00:21.241Z,1.98
2023-08-09T02:02:50.082Z,2.00
2023-08-09T02:05:18.592Z,1.98
2023-08-09T02:07:46.554Z,1.73
2023-08-09T02:10:14.808Z,1.52
2023-08-09T02:12:48.327Z,2.20
2023-08-09T02:15:17.752Z,2.10
2023-08-09T02:17:47.622Z,2.00
2023-08-09T02:20:15.932Z,1.90
2023-08-09T02:22:44.427Z,2.00
2023-08-09T02:25:14.274Z,1.88
2023-08-09T02:27:42.656Z,1.80
2023-08-09T02:30:13.006Z,1.90
2023-08-09T02:32:41.301Z,1.58
2023-08-09T02:35:11.617Z,2.27
2023-08-09T02:37:39.831Z,1.60
2023-08-09T02:40:10.866Z,1.83
2023-08-09T02:42:38.980Z,1.83
2023-08-09T02:45:08.225Z,1.52
2023-08-09T02:47:38.191Z,1.57
2023-08-09T02:50:08.520Z,1.50
2023-08-09T02:52:37.753Z,1.67
2023-08-09T02:55:08.093Z,1.50
2023-08-09T02:57:36.409Z,1.43
2023-08-09T03:00:05.385Z,1.88
2023-08-09T03:02:33.639Z,1.90
2023-08-09T03:05:02.956Z,2.00
2023-08-09T03:07:30.900Z,1.70
2023-08-09T03:10:00.220Z,2.25
2023-08-09T03:12:28.366Z,2.00
2023-08-09T03:14:56.293Z,2.25
2023-08-09T03:17:24.386Z,1.80
2023-08-09T03:19:52.403Z,1.80
2023-08-09T03:22:20.474Z,1.80
2023-08-09T03:24:48.342Z,1.60
2023-08-09T03:27:17.777Z,1.65
2023-08-09T03:29:45.835Z,1.63
2023-08-09T03:32:13.765Z,1.52
2023-08-09T03:34:41.934Z,1.70
2023-08-09T03:37:10.200Z,1.73
2023-08-09T03:39:38.114Z,1.80
2023-08-09T03:42:06.937Z,1.97
2023-08-09T03:44:36.290Z,1.90
2023-08-09T03:47:04.616Z,1.45
2023-08-09T03:49:32.631Z,1.60
2023-08-09T03:52:00.586Z,2.03
2023-08-09T03:54:29.534Z,2.25
2023-08-09T03:56:57.625Z,1.50
2023-08-09T03:59:25.572Z,1.57
2023-08-09T04:01:54.891Z,1.77
2023-08-09T04:04:24.229Z,1.80
2023-08-09T04:06:52.159Z,1.60
2023-08-09T04:09:20.089Z,1.80
2023-08-09T04:11:47.919Z,2.10
2023-08-09T04:14:15.884Z,2.00
2023-08-09T04:16:43.807Z,1.70
2023-08-09T04:19:13.116Z,1.90
2023-08-09T04:21:41.187Z,1.80
2023-08-09T04:24:11.258Z,1.70
2023-08-09T04:26:39.273Z,1.90
2023-08-09T04:29:08.399Z,1.85
2023-08-09T04:31:36.534Z,1.80
2023-08-09T04:34:04.592Z,1.92
2023-08-09T04:36:33.905Z,2.00
2023-08-09T04:39:01.830Z,2.00
2023-08-09T04:41:29.744Z,1.77
2023-08-09T04:43:57.693Z,2.03
2023-08-09T04:46:25.632Z,1.60
2023-08-09T04:48:53.556Z,2.00
2023-08-09T04:51:21.609Z,2.00
2023-08-09T04:53:51.177Z,1.83
2023-08-09T04:56:19.332Z,1.92
2023-08-09T04:58:47.384Z,1.70
2023-08-09T05:01:15.420Z,1.63
2023-08-09T05:03:43.667Z,2.47
2023-08-09T05:06:12.058Z,2.03
2023-08-09T05:08:40.238Z,1.80
2023-08-09T05:11:09.764Z,1.98
2023-08-09T05:13:37.767Z,1.90
2023-08-09T05:16:06.228Z,1.80
2023-08-09T05:18:34.237Z,2.00
2023-08-09T05:21:03.485Z,1.75
2023-08-09T05:23:31.501Z,2.00
2023-08-09T05:25:59.587Z,1.52
2023-08-09T05:28:28.972Z,1.83
2023-08-09T05:30:56.979Z,1.58
2023-08-09T05:33:25.552Z,1.50
2023-08-09T05:35:54.616Z,1.50
2023-08-09T05:38:22.590Z,1.30
2023-08-09T05:40:50.777Z,1.35
2023-08-09T05:43:18.696Z,1.58
2023-08-09T05:45:49.602Z,1.50
2023-08-09T05:48:17.550Z,1.88
2023-08-09T05:50:45.782Z,1.73
2023-08-09T05:53:14.002Z,1.58
2023-08-09T05:55:42.359Z,1.67
2023-08-09T05:58:10.411Z,1.70
2023-08-09T06:00:39.343Z,1.25
2023-08-09T06:03:09.211Z,1.27
2023-08-09T06:05:37.324Z,1.50
2023-08-09T06:08:06.012Z,1.40
2023-08-09T06:10:33.978Z,1.63
2023-08-09T06:13:02.017Z,1.40
2023-08-09T06:15:30.003Z,1.70
2023-08-09T06:17:58.083Z,1.40
2023-08-09T06:20:29.200Z,1.20
2023-08-09T06:22:57.399Z,1.10
2023-08-09T06:25:25.487Z,1.00
2023-08-09T06:27:55.893Z,1.05
2023-08-09T06:30:23.784Z,1.17
2023-08-09T06:32:51.799Z,1.48
2023-08-09T06:35:19.882Z,1.10
2023-08-09T06:37:55.934Z,1.05
2023-08-09T06:40:27.209Z,0.90
2023-08-09T06:42:55.200Z,1.20
2023-08-09T06:45:23.084Z,0.90
2023-08-09T06:47:52.583Z,1.00
2023-08-09T06:50:20.546Z,0.90
2023-08-09T06:52:49.847Z,0.80
2023-08-09T06:55:17.791Z,1.20
2023-08-09T06:57:46.081Z,0.88
2023-08-09T07:00:17.864Z,0.80
2023-08-09T07:02:49.345Z,0.90
2023-08-09T07:05:20.375Z,0.85
2023-08-09T07:07:53.224Z,1.00
2023-08-09T07:10:21.514Z,1.10
2023-08-09T07:12:49.484Z,0.77
2023-08-09T07:15:17.843Z,0.80
2023-08-09T07:17:45.867Z,1.10
2023-08-09T07:20:15.718Z,0.90
2023-08-09T07:22:45.341Z,1.00
2023-08-09T07:25:16.103Z,1.13
2023-08-09T07:27:44.855Z,1.20
2023-08-09T07:30:14.651Z,1.00
2023-08-09T07:32:42.913Z,0.93
2023-08-09T07:35:12.232Z,1.42
2023-08-09T07:37:43.962Z,0.98
2023-08-09T07:40:15.063Z,1.20
2023-08-09T07:42:45.114Z,0.88
2023-08-09T07:45:13.505Z,1.13
2023-08-09T07:47:42.842Z,0.98
2023-08-09T07:50:11.925Z,1.10
2023-08-09T07:52:40.026Z,0.80
2023-08-09T07:55:09.668Z,1.13
2023-08-09T07:57:37.920Z,0.85
2023-08-09T08:00:15.749Z,0.90
2023-08-09T08:02:45.282Z,1.00
2023-08-09T08:05:16.554Z,1.10
2023-08-09T08:07:45.529Z,0.90
2023-08-09T08:10:15.914Z,0.90
2023-08-09T08:12:45.245Z,1.17
2023-08-09T08:15:14.869Z,0.80
2023-08-09T08:17:43.892Z,1.10
2023-08-09T08:20:16.919Z,1.00
2023-08-09T08:22:45.087Z,0.90
2023-08-09T08:25:13.723Z,0.90
2023-08-09T08:27:46.460Z,0.93
2023-08-09T08:30:18.467Z,1.20
2023-08-09T08:32:47.512Z,0.95
2023-08-09T08:35:16.055Z,0.90
2023-08-09T08:37:45.168Z,1.08
2023-08-09T08:40:19.400Z,0.98
2023-08-09T08:42:48.292Z,1.08
2023-08-09T08:45:18.106Z,0.90
2023-08-09T08:47:47.857Z,0.98
2023-08-09T08:50:17.174Z,1.20
2023-08-09T08:52:46.639Z,1.20
2023-08-09T08:55:15.280Z,1.30
2023-08-09T08:57:44.400Z,1.00
2023-08-09T09:00:24.601Z,1.20
2023-08-09T09:02:57.149Z,1.40
2023-08-09T09:05:25.629Z,1.20
2023-08-09T09:07:58.130Z,1.15
2023-08-09T09:10:26.823Z,1.52
2023-08-09T09:12:57.190Z,1.42
2023-08-09T09:15:26.360Z,1.38
2023-08-09T09:17:56.595Z,1.20
2023-08-09T09:20:31.065Z,1.17
2023-08-09T09:23:00.849Z,1.40
2023-08-09T09:25:29.007Z,1.60
2023-08-09T09:27:59.075Z,1.30
2023-08-09T09:30:31.205Z,1.38
2023-08-09T09:33:02.154Z,1.10
2023-08-09T09:35:34.654Z,1.20
2023-08-09T09:38:03.884Z,1.17
2023-08-09T09:40:35.962Z,1.20
2023-08-09T09:43:06.667Z,1.20
2023-08-09T09:45:35.573Z,1.40
2023-08-09T09:48:05.680Z,1.23
2023-08-09T09:50:35.016Z,1.30
2023-08-09T09:53:04.677Z,1.60
2023-08-09T09:55:32.793Z,1.48
2023-08-09T09:58:00.937Z,1.20
2023-08-09T10:00:29.788Z,1.33
2023-08-09T10:03:05.662Z,1.30
2023-08-09T10:05:39.414Z,1.10
2023-08-09T10:08:14.155Z,1.17
2023-08-09T10:10:45.855Z,1.30
2023-08-09T10:13:17.003Z,1.58
2023-08-09T10:15:49.323Z,1.35
2023-08-09T10:18:21.202Z,1.30
2023-08-09T10:20:53.830Z,1.30
2023-08-09T10:23:23.570Z,1.25
2023-08-09T10:25:52.163Z,1.70
2023-08-09T10:28:20.941Z,1.60
2023-08-09T10:30:53.358Z,1.52
2023-08-09T10:33:21.904Z,1.15
2023-08-09T10:35:55.988Z,1.25
2023-08-09T10:38:48.115Z,1.00
2023-08-09T10:41:17.123Z,1.42
2023-08-09T10:43:45.053Z,0.90
2023-08-09T10:46:21.082Z,1.30
2023-08-09T10:48:53.224Z,1.23
2023-08-09T10:51:24.577Z,1.20
2023-08-09T10:53:57.405Z,1.30
2023-08-09T10:56:33.636Z,1.45
2023-08-09T10:59:07.128Z,1.50
2023-08-09T11:01:36.164Z,1.02
2023-08-09T11:04:10.511Z,1.27
2023-08-09T11:06:42.403Z,1.38
2023-08-09T11:09:11.370Z,1.23
2023-08-09T11:11:41.497Z,1.40
2023-08-09T11:14:10.358Z,1.40
2023-08-09T11:16:38.449Z,1.15
2023-08-09T11:19:23.938Z,1.50
2023-08-09T11:21:59.076Z,1.08
2023-08-09T11:24:27.025Z,1.10
2023-08-09T11:26:56.454Z,1.45
2023-08-09T11:29:27.295Z,1.20
2023-08-09T11:31:57.080Z,1.20
2023-08-09T11:34:26.211Z,1.15
2023-08-09T11:36:56.119Z,1.15
2023-08-09T11:39:27.506Z,1.10
2023-08-09T11:41:57.969Z,1.40
2023-08-09T11:44:28.921Z,1.13
2023-08-09T11:46:57.966Z,1.20
2023-08-09T11:49:27.584Z,1.38
2023-08-09T11:51:55.986Z,1.45
2023-08-09T11:54:25.910Z,1.27
2023-08-09T11:56:54.155Z,1.27
2023-08-09T11:59:24.248Z,1.30
2023-08-09T12:01:55.079Z,1.30
2023-08-09T12:04:25.269Z,1.30
2023-08-09T12:06:56.225Z,1.30
2023-08-09T12:09:32.679Z,1.27
2023-08-09T12:12:06.405Z,1.25
2023-08-09T12:14:36.750Z,1.38
2023-08-09T12:17:04.153Z,1.50
2023-08-09T12:19:32.090Z,1.60
2023-08-09T12:22:01.511Z,1.48
2023-08-09T12:24:32.690Z,1.55
2023-08-09T12:27:01.041Z,1.50
2023-08-09T12:29:29.058Z,1.45
2023-08-09T12:31:57.226Z,2.10
2023-08-09T12:34:25.204Z,1.60
2023-08-09T12:36:54.117Z,1.60
2023-08-09T12:39:22.695Z,1.67
2023-08-09T12:41:52.367Z,1.73
2023-08-09T12:44:20.631Z,1.90
2023-08-09T12:46:48.669Z,1.58
2023-08-09T12:49:16.747Z,1.58
2023-08-09T12:51:44.911Z,1.50
2023-08-09T12:54:13.969Z,1.95
2023-08-09T12:56:41.973Z,1.60
2023-08-09T12:59:11.509Z,1.52
2023-08-09T13:01:39.454Z,1.63
2023-08-09T13:04:08.563Z,1.40
2023-08-09T13:06:36.673Z,1.10
2023-08-09T13:09:11.645Z,1.17
2023-08-09T13:11:40.528Z,1.42
2023-08-09T13:14:08.766Z,1.20
2023-08-09T13:16:38.272Z,1.25
2023-08-09T13:19:06.849Z,1.40
2023-08-09T13:21:34.966Z,1.13
2023-08-09T13:24:03.026Z,1.40
2023-08-09T13:26:32.528Z,1.42
2023-08-09T13:29:00.614Z,1.48
2023-08-09T13:31:29.119Z,1.73
2023-08-09T13:33:59.293Z,1.60
2023-08-09T13:36:27.550Z,1.60
2023-08-09T13:38:55.579Z,1.70
2023-08-09T13:41:23.643Z,1.40
2023-08-09T13:43:51.482Z,1.40
2023-08-09T13:46:19.674Z,1.67
2023-08-09T13:48:48.278Z,1.58
2023-08-09T13:51:17.768Z,1.75
2023-08-09T13:53:45.721Z,1.60
2023-08-09T13:56:13.617Z,1.70
2023-08-09T13:58:41.728Z,1.58
2023-08-09T14:01:09.915Z,1.50
2023-08-09T14:03:38.019Z,1.80
2023-08-09T14:06:05.942Z,1.42
2023-08-09T14:08:35.297Z,1.60
2023-08-09T14:11:03.630Z,1.80
2023-08-09T14:13:31.906Z,1.63
2023-08-09T14:16:00.053Z,1.70
2023-08-09T14:18:28.244Z,1.90
2023-08-09T14:20:56.136Z,1.90
2023-08-09T14:23:24.382Z,1.80
2023-08-09T14:25:53.678Z,1.90
2023-08-09T14:28:23.234Z,1.90
2023-08-09T14:30:53.166Z,1.92
2023-08-09T14:33:21.189Z,1.63
2023-08-09T14:35:49.190Z,2.00
2023-08-09T14:38:17.076Z,1.92
2023-08-09T14:40:45.065Z,2.10
2023-08-09T14:43:15.689Z,1.80
2023-08-09T14:45:43.818Z,2.20
2023-08-09T14:48:11.810Z,2.33
2023-08-09T14:50:42.072Z,2.50
2023-08-09T14:53:12.417Z,2.47
2023-08-09T14:55:41.216Z,2.13
2023-08-09T14:58:09.169Z,2.10
2023-08-09T15:00:38.559Z,2.10
2023-08-09T15:03:07.210Z,2.30
2023-08-09T15:05:35.692Z,1.95
2023-08-09T15:08:03.658Z,2.00
2023-08-09T15:10:34.621Z,1.80
2023-08-09T15:13:04.443Z,1.70
2023-08-09T15:15:32.498Z,1.65
2023-08-09T15:18:03.181Z,1.88
2023-08-09T15:20:31.371Z,1.88
2023-08-09T15:22:59.332Z,1.63
2023-08-09T15:25:27.245Z,2.03
2023-08-09T15:27:56.028Z,1.90
2023-08-09T15:30:25.579Z,1.75
2023-08-09T15:32:53.813Z,2.00
2023-08-09T15:35:23.631Z,1.83
2023-08-09T15:37:52.567Z,1.98
2023-08-09T15:40:21.335Z,2.03
2023-08-09T15:42:49.721Z,2.03
2023-08-09T15:45:18.350Z,1.85
2023-08-09T15:47:47.659Z,2.00
2023-08-09T15:50:15.828Z,2.28
2023-08-09T15:52:46.409Z,1.85
2023-08-09T15:55:14.493Z,2.20
2023-08-09T15:57:42.627Z,2.40
2023-08-09T16:00:13.106Z,2.05
2023-08-09T16:02:41.260Z,2.53
2023-08-09T16:05:13.250Z,2.10
2023-08-09T16:07:41.300Z,2.50
2023-08-09T16:10:11.901Z,2.60
2023-08-09T16:12:39.891Z,2.47
2023-08-09T16:15:09.263Z,1.63
2023-08-09T16:17:37.267Z,2.22
2023-08-09T16:20:07.181Z,1.80
2023-08-09T16:22:38.160Z,1.65
2023-08-09T16:25:06.939Z,1.58
2023-08-09T16:27:36.538Z,1.70
2023-08-09T16:30:06.932Z,1.80
2023-08-09T16:32:36.146Z,1.73
2023-08-09T16:35:04.598Z,1.60
2023-08-09T16:37:32.617Z,1.85
2023-08-09T16:40:00.552Z,1.65
2023-08-09T16:42:28.561Z,1.70
2023-08-09T16:44:57.917Z,1.67
2023-08-09T16:47:26.078Z,2.78
2023-08-09T16:49:54.077Z,2.03
2023-08-09T16:52:22.527Z,2.53
2023-08-09T16:54:50.477Z,2.33
2023-08-09T16:57:18.544Z,1.80
2023-08-09T16:59:46.534Z,2.13
2023-08-09T17:02:16.297Z,1.75
2023-08-09T17:04:44.279Z,2.40
2023-08-09T17:07:16.854Z,2.08
2023-08-09T17:09:44.740Z,2.20
2023-08-09T17:12:12.879Z,2.33
2023-08-09T17:14:41.026Z,2.00
2023-08-09T17:17:08.992Z,2.17
2023-08-09T17:19:38.818Z,1.70
2023-08-09T17:22:06.902Z,1.95
2023-08-09T17:24:36.590Z,2.00
2023-08-09T17:27:05.014Z,1.90
2023-08-09T17:29:33.085Z,2.00
2023-08-09T17:32:01.833Z,1.92
2023-08-09T17:34:29.880Z,1.48
2023-08-09T17:36:59.188Z,1.73
2023-08-09T17:39:27.250Z,2.13
2023-08-09T17:41:55.363Z,1.60
2023-08-09T17:44:23.383Z,2.15
2023-08-09T17:46:51.455Z,2.10
2023-08-09T17:49:19.434Z,1.95
2023-08-09T17:51:49.295Z,2.00
2023-08-09T17:54:18.621Z,1.85
2023-08-09T17:56:46.693Z,1.95
2023-08-09T17:59:17.507Z,1.88
2023-08-09T18:01:46.052Z,1.95
2023-08-09T18:04:15.613Z,2.15
2023-08-09T18:06:44.209Z,2.25
2023-08-09T18:09:12.587Z,2.42
2023-08-09T18:11:42.673Z,2.67
2023-08-09T18:14:11.800Z,2.50
2023-08-09T18:16:43.064Z,2.00
2023-08-09T18:19:11.905Z,2.30
2023-08-09T18:21:39.952Z,2.13
2023-08-09T18:24:08.075Z,2.00
2023-08-09T18:26:36.661Z,2.42
2023-08-09T18:29:06.062Z,2.20
2023-08-09T18:31:36.355Z,2.17
2023-08-09T18:34:04.682Z,2.17
2023-08-09T18:36:32.649Z,2.05
2023-08-09T18:39:00.528Z,2.17
2023-08-09T18:41:28.505Z,2.30
2023-08-09T18:43:56.679Z,2.50
2023-08-09T18:46:25.913Z,3.10
2023-08-09T18:48:54.480Z,2.97
2023-08-09T18:51:22.423Z,2.47
2023-08-09T18:53:51.881Z,2.75
2023-08-09T18:56:19.829Z,2.60
2023-08-09T18:58:47.805Z,2.40
2023-08-09T19:01:15.935Z,2.20
2023-08-09T19:03:46.044Z,2.60
2023-08-09T19:06:14.043Z,2.10
2023-08-09T19:08:43.952Z,2.67
2023-08-09T19:11:11.943Z,2.42
2023-08-09T19:13:39.941Z,2.47
2023-08-09T19:16:08.211Z,2.50
2023-08-09T19:18:36.185Z,2.72
2023-08-09T19:21:05.778Z,2.20
2023-08-09T19:23:34.092Z,2.95
2023-08-09T19:26:02.248Z,2.17
2023-08-09T19:28:30.392Z,2.30
2023-08-09T19:31:01.018Z,2.67
2023-08-09T19:33:32.657Z,2.92
2023-08-09T19:36:00.714Z,2.45
2023-08-09T19:38:30.129Z,2.50
2023-08-09T19:40:58.178Z,2.90
2023-08-09T19:43:26.159Z,2.30
2023-08-09T19:45:54.196Z,2.70
2023-08-09T19:48:22.192Z,3.00
2023-08-09T19:50:51.000Z,2.70
2023-08-09T19:53:19.331Z,2.78
2023-08-09T19:55:49.415Z,2.60
2023-08-09T19:58:18.075Z,3.13
2023-08-09T20:00:46.344Z,2.67
2023-08-09T20:03:14.525Z,3.00
2023-08-09T20:05:42.606Z,2.90
2023-08-09T20:08:12.714Z,3.25
2023-08-09T20:10:40.832Z,3.63
2023-08-09T20:13:10.206Z,3.35
2023-08-09T20:15:38.408Z,3.33
2023-08-09T20:18:07.437Z,3.13
2023-08-09T20:20:37.772Z,3.53
2023-08-09T20:23:07.197Z,2.90
2023-08-09T20:25:36.101Z,3.13
2023-08-09T20:28:06.101Z,3.20
2023-08-09T20:30:35.500Z,3.00
2023-08-09T20:33:04.335Z,3.15
2023-08-09T20:35:32.786Z,3.33
2023-08-09T20:38:01.097Z,3.30
2023-08-09T20:40:29.399Z,3.22
2023-08-09T20:42:57.771Z,2.80
2023-08-09T20:45:27.299Z,3.42
2023-08-09T20:47:58.701Z,3.45
2023-08-09T20:50:26.975Z,3.67
2023-08-09T20:52:55.025Z,3.60
2023-08-09T20:55:22.953Z,3.70
2023-08-09T20:57:52.720Z,3.63
2023-08-09T21:00:23.149Z,3.58
2023-08-09T21:02:51.719Z,3.58
2023-08-09T21:05:21.443Z,3.97
2023-08-09T21:07:49.802Z,3.53
2023-08-09T21:10:17.831Z,3.70
2023-08-09T21:12:46.094Z,3.10
2023-08-09T21:15:15.023Z,3.40
2023-08-09T21:17:46.693Z,3.58
2023-08-09T21:20:16.207Z,3.60
2023-08-09T21:22:46.200Z,4.25
2023-08-09T21:27:51.858Z,3.88
2023-08-09T21:30:20.849Z,3.78
2023-08-09T21:32:49.305Z,3.67
2023-08-09T21:35:17.941Z,4.13
2023-08-09T21:37:47.375Z,4.30
2023-08-09T21:40:18.926Z,3.95
2023-08-09T21:42:49.886Z,3.78
2023-08-09T21:45:18.000Z,3.60
2023-08-09T21:47:46.043Z,3.78
2023-08-09T21:50:14.065Z,3.90
2023-08-09T21:52:42.091Z,3.78
2023-08-09T21:55:11.689Z,3.67
2023-08-09T21:57:39.766Z,4.35
2023-08-09T22:00:11.674Z,4.13
2023-08-09T22:02:39.790Z,3.85
2023-08-09T22:05:08.189Z,3.58
2023-08-09T22:07:37.089Z,4.28
2023-08-09T22:10:05.478Z,4.20
2023-08-09T22:12:34.956Z,4.80
2023-08-09T22:15:03.864Z,4.82
2023-08-09T22:17:32.071Z,4.35
2023-08-09T22:20:00.153Z,4.80
2023-08-09T22:22:28.196Z,4.75
2023-08-09T22:24:56.234Z,4.22
2023-08-09T22:27:24.229Z,5.32
2023-08-09T22:29:54.274Z,5.15
2023-08-09T22:32:22.409Z,5.85
2023-08-09T22:34:50.322Z,5.45
2023-08-09T22:37:18.616Z,5.88
2023-08-09T22:39:46.732Z,5.32
2023-08-09T22:42:15.022Z,6.57
2023-08-09T22:44:43.071Z,6.00
2023-08-09T22:47:12.478Z,6.15
2023-08-09T22:49:40.934Z,5.90
2023-08-09T22:52:08.898Z,5.68
2023-08-09T22:54:36.985Z,5.97
2023-08-09T22:57:04.998Z,6.40
2023-08-09T22:59:32.985Z,5.70
2023-08-09T23:02:00.970Z,6.10
2023-08-09T23:04:30.318Z,6.55
2023-08-09T23:06:58.456Z,7.05
2023-08-09T23:09:26.738Z,6.25
2023-08-09T23:11:54.658Z,6.43
2023-08-09T23:14:22.645Z,6.03
2023-08-09T23:16:50.550Z,7.28
2023-08-09T23:19:18.783Z,6.80
2023-08-09T23:21:48.384Z,6.35
2023-08-09T23:24:16.356Z,6.43
2023-08-09T23:26:44.334Z,6.35
2023-08-09T23:29:13.437Z,6.75
2023-08-09T23:31:41.625Z,6.40
2023-08-09T23:34:09.687Z,6.40
2023-08-09T23:36:37.621Z,6.40
2023-08-09T23:39:08.817Z,6.13
2023-08-09T23:41:36.954Z,7.43
2023-08-09T23:44:05.315Z,6.88
2023-08-09T23:46:33.806Z,6.57
2023-08-09T23:49:01.733Z,6.93
2023-08-09T23:51:29.749Z,6.45
2023-08-09T23:54:01.206Z,6.68
2023-08-09T23:56:30.696Z,6.13
2023-08-09T23:58:58.658Z,6.18
